Forside
METAR-TAF:

METAR-TAF

Lufthavne :

Dubai International Airport

Dubai, Forenede Arabiske Emirater

Breddekreds: 25-15-10N, længdekreds: 055-21-52E, højde: 8 m

Aktuelle vejr

Denne rapport blev lavet for 38 minutter siden, kl. 02:00 UTC
Vind 5 kt fra sydsydøst, varierende mellem østsydøst og syd
Temperatur 30°C
Fugtighed 70%
Tryk 1000 hPa
Sigt: 4000 m
Udbredt støv

METAR: OMDB 250200Z 15005KT 120V190 4000 DU NSC 30/24 Q1000 TEMPO 3000

Tid: 06:38 (02:38 UTC)

Vejrudsigter

Denne rapport blev lavet for 3 timer og 36 minutter siden, kl. 23:02 UTC
Foreløbig gælder fra 25 på 00 UTC til 26 på 06 UTC
Vind 5 kt fra syd
Sigt: 8000 m
Sandsynlighed 30%
fra 25 på 01 UTC til 25 på 04 UTC
Sigt: 4000 m
tåge/dis
ændring
fra 25 på 05 UTC til 25 på 07 UTC
Vind 10 kt fra vest
ændring
fra 25 på 16 UTC til 25 på 18 UTC
Vind 5 kt fra sydsydvest

TAF: OMDB 242302Z 2500/2606 19005KT 8000 NSC PROB30 2501/2504 4000 HZ BECMG 2505/2507 28010KT BECMG 2516/2518 20005KT

Vejrobservationer og prognoser fra mere end 4000 lufthavne (METAR og TAF).

De gule og røde prikker repræsenterer de meteorologiske stationer.

Flyt musen over at se navnet på stationen.

Så klik over at se vejr observationer og prognoser.

At skifte det kort: Klik på de grønne knapper med et sort kors for at zoome ind; på den grønne knap med en bindestreg for at zoome ud; eller på de grønne pile for tilstødende kort.


METAR-TAF: